createdAt,value
2022-12-23T00:04:31.311Z,12.90
2022-12-23T00:09:34.742Z,12.92
2022-12-23T00:14:38.302Z,12.94
2022-12-23T00:19:41.821Z,12.91
2022-12-23T00:24:45.939Z,12.93
2022-12-23T00:29:49.188Z,13.02
2022-12-23T00:34:52.211Z,13.06
2022-12-23T00:39:56.972Z,13.11
2022-12-23T00:45:03.394Z,13.12
2022-12-23T00:50:07.716Z,13.11
2022-12-23T00:55:11.070Z,13.12
2022-12-23T01:00:15.956Z,13.12
2022-12-23T01:05:19.786Z,13.11
2022-12-23T01:10:23.128Z,13.07
2022-12-23T01:15:26.162Z,13.08
2022-12-23T01:20:29.359Z,13.09
2022-12-23T01:25:32.577Z,13.08
2022-12-23T01:30:35.584Z,13.06
2022-12-23T01:35:38.812Z,13.02
2022-12-23T01:40:45.157Z,12.99
2022-12-23T01:45:48.808Z,12.95
2022-12-23T01:50:54.135Z,12.94
2022-12-23T01:56:06.864Z,12.91
2022-12-23T02:01:11.620Z,12.89
2022-12-23T02:06:22.745Z,12.88
2022-12-23T02:11:45.575Z,12.85
2022-12-23T02:17:03.973Z,12.81
2022-12-23T02:22:19.280Z,12.77
2022-12-23T02:27:43.337Z,12.77
2022-12-23T02:33:41.139Z,12.79
2022-12-23T02:39:06.929Z,12.81
2022-12-23T02:44:27.595Z,12.80
2022-12-23T02:49:34.782Z,12.80
2022-12-23T02:55:00.513Z,12.77
2022-12-23T03:00:06.274Z,12.75
2022-12-23T03:05:46.797Z,12.63
2022-12-23T03:11:09.310Z,12.56
2022-12-23T03:16:44.962Z,12.49
2022-12-23T03:21:48.072Z,12.43
2022-12-23T03:27:17.554Z,12.41
2022-12-23T03:32:23.395Z,12.42
2022-12-23T03:37:30.559Z,12.42
2022-12-23T03:42:40.927Z,12.42
2022-12-23T03:47:48.955Z,12.40
2022-12-23T03:52:56.602Z,12.36
2022-12-23T03:58:14.750Z,12.36
2022-12-23T04:03:53.077Z,12.34
2022-12-23T04:08:57.766Z,12.32
2022-12-23T04:14:01.459Z,12.27
2022-12-23T04:19:04.950Z,12.23
2022-12-23T04:24:08.663Z,12.21
2022-12-23T04:29:12.304Z,12.22
2022-12-23T04:34:16.155Z,12.26
2022-12-23T04:39:21.058Z,12.29
2022-12-23T04:44:24.554Z,12.34
2022-12-23T04:49:27.994Z,12.39
2022-12-23T04:54:31.540Z,12.43
2022-12-23T04:59:35.116Z,12.49
2022-12-23T05:04:38.675Z,12.50
2022-12-23T05:09:42.312Z,12.53
2022-12-23T05:14:45.871Z,12.57
2022-12-23T05:19:49.838Z,12.64
2022-12-23T05:24:53.237Z,12.66
2022-12-23T05:29:56.539Z,12.69
2022-12-23T05:35:00.513Z,12.69
2022-12-23T05:40:04.304Z,12.73
2022-12-23T05:45:09.716Z,12.75
2022-12-23T05:50:13.855Z,12.77
2022-12-23T05:55:19.766Z,12.79
2022-12-23T06:00:23.526Z,12.82
2022-12-23T06:05:26.911Z,12.85
2022-12-23T06:10:30.295Z,12.93
2022-12-23T06:15:33.525Z,12.99
2022-12-23T06:20:36.911Z,13.03
2022-12-23T06:25:40.737Z,13.09
2022-12-23T06:30:44.061Z,13.20
2022-12-23T06:35:48.330Z,13.35
2022-12-23T06:40:53.179Z,13.49
2022-12-23T06:45:57.101Z,13.63
2022-12-23T06:51:00.722Z,13.73
2022-12-23T06:56:05.047Z,13.87
2022-12-23T07:01:10.127Z,14.02
2022-12-23T07:06:14.130Z,14.19
2022-12-23T07:11:17.533Z,14.34
2022-12-23T07:16:20.954Z,14.43
2022-12-23T07:21:29.446Z,14.49
2022-12-23T07:26:33.591Z,14.42
2022-12-23T07:31:40.710Z,14.37
2022-12-23T07:36:44.920Z,14.28
2022-12-23T07:41:55.499Z,14.32
2022-12-23T07:47:07.323Z,14.42
2022-12-23T07:52:11.043Z,14.53
2022-12-23T07:57:14.476Z,14.50
2022-12-23T08:02:18.033Z,14.38
2022-12-23T08:07:21.603Z,14.22
2022-12-23T08:12:25.557Z,14.08
2022-12-23T08:17:30.601Z,13.96
2022-12-23T08:22:33.920Z,13.90
2022-12-23T08:27:37.101Z,13.89
2022-12-23T08:32:40.118Z,13.97
2022-12-23T08:37:43.989Z,14.14
2022-12-23T08:42:47.356Z,14.28
2022-12-23T08:47:50.662Z,14.40
2022-12-23T08:52:53.891Z,14.58
2022-12-23T08:57:57.326Z,14.72
2022-12-23T09:03:04.444Z,14.91
2022-12-23T09:08:09.589Z,15.25
2022-12-23T09:13:22.317Z,15.35
2022-12-23T09:18:31.411Z,15.25
2022-12-23T09:23:35.228Z,15.13
2022-12-23T09:28:40.181Z,15.07
2022-12-23T09:33:46.682Z,15.08
2022-12-23T09:38:58.052Z,15.33
2022-12-23T09:44:02.375Z,15.54
2022-12-23T09:49:13.108Z,15.78
2022-12-23T09:54:27.914Z,15.94
2022-12-23T09:59:49.472Z,15.96
2022-12-23T10:05:11.788Z,16.03
2022-12-23T10:10:39.608Z,16.04
2022-12-23T10:15:50.473Z,16.03
2022-12-23T10:21:03.508Z,16.02
2022-12-23T10:26:20.986Z,15.99
2022-12-23T10:31:42.028Z,15.74
2022-12-23T10:36:57.174Z,15.62
2022-12-23T10:42:40.847Z,15.66
2022-12-23T10:48:14.399Z,15.78
2022-12-23T10:53:37.726Z,15.85
2022-12-23T10:58:45.062Z,15.98
2022-12-23T11:04:06.456Z,15.96
2022-12-23T11:09:20.882Z,15.89
2022-12-23T11:14:43.098Z,15.82
2022-12-23T11:19:46.784Z,15.75
2022-12-23T11:24:50.891Z,15.76
2022-12-23T11:29:55.331Z,15.72
2022-12-23T11:35:01.185Z,15.75
2022-12-23T11:40:06.938Z,15.73
2022-12-23T11:45:10.484Z,15.70
2022-12-23T11:50:36.194Z,15.63
2022-12-23T11:55:46.740Z,15.56
2022-12-23T12:00:56.995Z,15.53
2022-12-23T12:06:04.543Z,15.47
2022-12-23T12:11:17.823Z,15.45
2022-12-23T12:16:31.627Z,15.49
2022-12-23T12:21:39.061Z,15.49
2022-12-23T12:26:46.329Z,15.45
2022-12-23T12:31:53.724Z,15.49
2022-12-23T12:37:07.322Z,15.45
2022-12-23T12:42:20.834Z,15.36
2022-12-23T12:48:11.669Z,15.31
2022-12-23T12:53:22.803Z,15.26
2022-12-23T12:58:26.399Z,15.19
2022-12-23T13:04:05.102Z,15.15
2022-12-23T13:09:28.241Z,15.08
2022-12-23T13:14:31.529Z,15.05
2022-12-23T13:19:56.155Z,14.98
2022-12-23T13:25:05.730Z,14.90
2022-12-23T13:30:20.682Z,14.84
2022-12-23T13:35:33.240Z,14.79
2022-12-23T13:41:13.136Z,14.74
2022-12-23T13:46:27.195Z,14.69
2022-12-23T13:51:40.753Z,14.65
2022-12-23T13:56:53.349Z,14.57
2022-12-23T14:01:56.773Z,14.45
2022-12-23T14:07:25.737Z,14.40
2022-12-23T14:12:36.278Z,14.31
2022-12-23T14:18:10.906Z,14.26
2022-12-23T14:23:30.480Z,14.17
2022-12-23T14:28:48.918Z,14.11
2022-12-23T14:33:52.933Z,14.01
2022-12-23T14:39:14.381Z,13.95
2022-12-23T14:44:42.069Z,13.89
2022-12-23T14:49:45.485Z,13.83
2022-12-23T14:55:06.420Z,13.79
2022-12-23T15:00:13.594Z,13.75
2022-12-23T15:05:23.203Z,13.74
2022-12-23T15:10:28.096Z,13.74
2022-12-23T15:15:32.356Z,13.76
2022-12-23T15:20:35.786Z,13.77
2022-12-23T15:25:44.589Z,13.82
2022-12-23T15:30:53.505Z,13.90
2022-12-23T15:35:57.758Z,13.96
2022-12-23T15:41:04.336Z,13.98
2022-12-23T15:46:10.825Z,13.99
2022-12-23T15:51:58.254Z,14.05
2022-12-23T15:56:54.648Z,14.07
2022-12-23T16:01:58.656Z,14.09
2022-12-23T16:07:03.101Z,14.08
2022-12-23T16:12:27.318Z,14.10
2022-12-23T16:17:35.275Z,14.17
2022-12-23T16:22:38.736Z,14.25
2022-12-23T16:27:47.566Z,14.35
2022-12-23T16:32:55.278Z,14.44
2022-12-23T16:38:14.475Z,14.48
2022-12-23T16:43:19.883Z,14.49
2022-12-23T16:48:35.580Z,14.48
2022-12-23T16:53:39.153Z,14.46
2022-12-23T16:58:43.698Z,14.42
2022-12-23T17:03:47.814Z,14.40
2022-12-23T17:08:53.732Z,14.39
2022-12-23T17:14:03.485Z,14.38
2022-12-23T17:19:08.126Z,14.34
2022-12-23T17:24:23.414Z,14.28
2022-12-23T17:29:26.892Z,14.26
2022-12-23T17:34:30.954Z,14.20
2022-12-23T17:39:34.752Z,14.13
2022-12-23T17:44:38.384Z,14.10
2022-12-23T17:49:42.544Z,14.05
2022-12-23T17:54:49.572Z,13.99
2022-12-23T17:59:54.642Z,13.97
2022-12-23T18:04:58.148Z,13.95
2022-12-23T18:10:01.522Z,13.98
2022-12-23T18:15:08.270Z,14.04
2022-12-23T18:20:20.780Z,14.08
2022-12-23T18:25:26.855Z,14.10
2022-12-23T18:30:30.500Z,14.09
2022-12-23T18:35:38.528Z,14.04
2022-12-23T18:40:43.235Z,13.98
2022-12-23T18:45:52.479Z,13.93
2022-12-23T18:50:56.867Z,13.88
2022-12-23T18:56:00.496Z,13.87
2022-12-23T19:01:04.841Z,13.87
2022-12-23T19:06:10.412Z,13.86
2022-12-23T19:11:19.087Z,13.85
2022-12-23T19:16:22.686Z,13.84
2022-12-23T19:21:26.394Z,13.84
2022-12-23T19:26:29.740Z,13.80
2022-12-23T19:31:32.904Z,13.77
2022-12-23T19:36:36.356Z,13.73
2022-12-23T19:41:40.731Z,13.70
2022-12-23T19:46:44.524Z,13.66
2022-12-23T19:51:48.818Z,13.59
2022-12-23T19:56:52.423Z,13.54
2022-12-23T20:01:56.768Z,13.52
2022-12-23T20:07:00.439Z,13.52
2022-12-23T20:12:04.248Z,13.49
2022-12-23T20:17:07.749Z,13.52
2022-12-23T20:22:11.633Z,13.47
2022-12-23T20:27:16.262Z,13.43
2022-12-23T20:32:21.339Z,13.39
2022-12-23T20:37:25.564Z,13.35
2022-12-23T20:42:29.150Z,13.34
2022-12-23T20:47:33.855Z,13.30
2022-12-23T20:52:37.690Z,13.26
2022-12-23T20:57:44.248Z,13.23
2022-12-23T21:02:47.751Z,13.24
2022-12-23T21:07:51.260Z,13.25
2022-12-23T21:12:54.605Z,13.27
2022-12-23T21:17:57.939Z,13.31
2022-12-23T21:23:01.406Z,13.39
2022-12-23T21:28:06.005Z,13.43
2022-12-23T21:33:09.349Z,13.49
2022-12-23T21:38:12.836Z,13.52
2022-12-23T21:43:16.624Z,13.54
2022-12-23T21:48:22.892Z,13.60
2022-12-23T21:53:26.365Z,13.62
2022-12-23T21:58:30.199Z,13.62
2022-12-23T22:03:33.596Z,13.64
2022-12-23T22:08:36.816Z,13.63
2022-12-23T22:13:40.777Z,13.66
2022-12-23T22:18:45.493Z,13.62
2022-12-23T22:23:50.530Z,13.60
2022-12-23T22:28:59.729Z,13.60
2022-12-23T22:34:05.357Z,13.66
2022-12-23T22:39:10.808Z,13.70
2022-12-23T22:44:16.518Z,13.76
2022-12-23T22:49:19.981Z,13.81
2022-12-23T22:54:23.347Z,13.85
2022-12-23T22:59:26.506Z,13.83
2022-12-23T23:04:30.367Z,13.79
2022-12-23T23:09:33.954Z,13.67
2022-12-23T23:14:37.267Z,13.64
2022-12-23T23:19:40.373Z,13.55
2022-12-23T23:24:44.507Z,13.46
2022-12-23T23:29:47.998Z,13.35
2022-12-23T23:34:51.330Z,13.28
2022-12-23T23:39:54.728Z,13.20
2022-12-23T23:44:57.870Z,13.13
2022-12-23T23:50:01.370Z,13.10
2022-12-23T23:55:06.097Z,13.13
